Nearby METAR Reports

 

EGWC - Cosford Raf, United Kingdom
Distance from station: SSW 22km
Updated: 11/06/2021 11:50
NOT Current
Mostly cloudy
Mostly cloudy
 Wind from WSW
Wind: WSW 9 mph , 15 km/h
Temperature: 18°C
Dew Point: 13°C
Humidity: 73%
Barometer: 1018 hPa
Clouds: Mostly cloudy
Visibility: 6 miles , 10 km
Cloud details: Mostly cloudy 701 m
2021/06/11 10:50 EGWC 111050Z 24008KT 9999 BKN023 18/13 Q1018 RMK WHT
EGOS - Shawbury Raf, United Kingdom
Distance from station: W 37km
Updated: 13/06/2021 08:50
Overcast
Overcast
 Wind from S
Wind: S 6 mph , 9 km/h
Temperature: 17°C
Dew Point: 12°C
Humidity: 73%
Barometer: 1027 hPa
Clouds: Overcast
Visibility: 6 miles , 10 km
Cloud details: Overcast 1097 m
2021/06/13 07:50 EGOS 130750Z AUTO 17005KT 9999 OVC036/// 17/12 Q1027
 
EGBB - Birmingham Airpo, United Kingdom
Distance from station: SE 44km
Updated: 13/06/2021 09:20
Few Clouds
Few Clouds
 Wind from varies
Wind: varies 2 mph , 4 km/h
Temperature: 19°C
Dew Point: 12°C
Humidity: 64%
Barometer: 1028 hPa
Clouds: Few Clouds
Visibility: 6 miles , 10 km
Cloud details: Few Clouds 975 m
2021/06/13 08:20 EGBB 130820Z VRB02KT 9999 FEW032 19/12 Q1028
EGNX - East Midlands, United Kingdom
Distance from station: E 54km
Updated: 13/06/2021 09:20
Clear
Clear
 Wind from varies
Wind: varies 5 mph , 7 km/h
Temperature: 18°C
Dew Point: 12°C
Humidity: 68%
Barometer: 1028 hPa
Summary: Clear
Visibility: greater than 7 miles , 10 km
2021/06/13 08:20 EGNX 130820Z VRB04KT CAVOK 18/12 Q1028
 
EGCC - Manchester Intl, United Kingdom
Distance from station: N 63km
Updated: 13/06/2021 09:20
Overcast
Overcast
 Wind from varies
Wind: varies 3 mph , 6 km/h
Temperature: 17°C
Dew Point: 12°C
Humidity: 73%
Barometer: 1028 hPa
Clouds: Overcast
Visibility: 6 miles , 10 km
Cloud details: Overcast 1097 m
2021/06/13 08:20 EGCC 130820Z AUTO VRB03KT 9999 OVC036 17/12 Q1028
EGBE - Coventry Airport, United Kingdom
Distance from station: SE 65km
Updated: 18/07/2017 14:50
NOT Current
Clear
Clear
 Wind from E
Wind: E 16 mph , 26 km/h
Temperature: 27°C
Heat Index: 27°C
Dew Point: 14°C
Humidity: 45%
Barometer: 1015 hPa
Summary: Clear
Visibility: greater than 7 miles , 10 km
2017/07/18 13:50 EGBE 181350Z 10014KT 060V120 CAVOK 27/14 Q1015
 
EGNR - Hawarden (aut), United Kingdom
Distance from station: NW 70km
Updated: 13/06/2021 09:20
Mostly cloudy
Mostly cloudy
 Wind from SE
Wind: SE 5 mph , 7 km/h
Temperature: 19°C
Dew Point: 14°C
Humidity: 73%
Barometer: 1028 hPa
Clouds: Mostly cloudy
Visibility: 6 miles , 10 km
Cloud details: Few Clouds 732 m
Mostly cloudy 1189 m
2021/06/13 08:20 EGNR 130820Z 14004KT 110V180 9999 FEW024 BKN039 19/14 Q1028
EGGP - Liverpool Airpor, United Kingdom
Distance from station: NW 76km
Updated: 13/06/2021 09:20
Overcast
Overcast
 Wind from SSE
Wind: SSE 5 mph , 7 km/h
Temperature: 20°C
Dew Point: 15°C
Humidity: 73%
Barometer: 1027 hPa
Clouds: Overcast
Visibility: 6 miles , 10 km
Cloud details: Partly cloudy 1097 m
Overcast 1158 m
2021/06/13 08:20 EGGP 130820Z 15004KT 110V220 9999 SCT036 OVC038 20/15 Q1027